Bookmark and Share
Track history (hours):
 

G Force

Last reported at 2014-Apr-20 23:30 UTC. Time now 2014-Apr-20 23:43 UTC.
Position N 43°33' E 007°07'.

Length 37 m; draft 2 m.

Type: Pleasure craft. MMSI: 235011330.

NotesDate/timePositionNaut miles runAvg speedWind from/ knotsBaromVisibWave heightAir tempDewpointWater temp
2014-Apr-20 23:30N 43°33' E 007°07'0 0.0
2014-Apr-20 22:30N 43°33' E 007°07'0 0.0
2014-Apr-20 21:30N 43°33' E 007°07'0 0.0
2014-Apr-20 20:30N 43°33' E 007°07'0 0.0
2014-Apr-20 19:30N 43°33' E 007°07'0 0.0
2014-Apr-20 18:30N 43°33' E 007°07'0 0.0
2014-Apr-20 17:30N 43°33' E 007°07'2 1.9
2014-Apr-20 16:33N 43°32' E 007°05'2 0.8
2014-Apr-20 13:32N 43°33' E 007°01'0 0.0
2014-Apr-20 11:20N 43°33' E 007°01'0 0.1
2014-Apr-20 10:24N 43°33' E 007°01'4 0.2
2014-Apr-19 08:10N 43°30' E 006°57'0 0.0
2014-Apr-19 07:28N 43°30' E 006°57'0 0.0
2014-Apr-19 06:10N 43°31' E 006°57'0 0.0
2014-Apr-19 04:10N 43°30' E 006°57'0 0.0
2014-Apr-19 02:22N 43°30' E 006°57'0 0.0
2014-Apr-19 01:28N 43°30' E 006°57'0 0.0
2014-Apr-19 00:28N 43°31' E 006°57'0 0.0
2014-Apr-18 23:10N 43°30' E 006°57'0 0.0
2014-Apr-18 22:25N 43°30' E 006°57'0 0.0
2014-Apr-18 21:31N 43°30' E 006°57'0 0.0
2014-Apr-18 20:07N 43°30' E 006°57'0 0.0
2014-Apr-18 19:31N 43°30' E 006°57'0 0.0
2014-Apr-18 18:33N 43°30' E 006°57'5 4.4
2014-Apr-18 17:31N 43°29' E 007°03'1818.4
2014-Apr-18 16:33N 43°41' E 007°20'0 0.0
2014-Apr-18 15:31N 43°41' E 007°20'0 0.0
2014-Apr-18 14:31N 43°41' E 007°20'0 0.0
2014-Apr-18 13:31N 43°41' E 007°20'5618.7
2014-Apr-18 10:33N 44°02' E 008°32'2323.2
2014-Apr-18 09:34N 44°13' E 009°01'10 0.6
2014-Apr-17 15:27N 44°18' E 009°13'1618.4
2014-Apr-17 14:34N 44°10' E 008°53'5216.6
2014-Apr-17 11:27N 43°49' E 007°47'  

Dump ship's entire track history

sailing weather and tide predictions

G Force — MNHN9 — position and weather